sensor_id;sensor_type;location;lat;lon;timestamp;P1;durP1;ratioP1;P2;durP2;ratioP2
68256;SDS011;55069;51.568;4.656;2022-09-03T00:01:50;5.37;;;2.87;;
68256;SDS011;55069;51.568;4.656;2022-09-03T00:04:41;7.35;;;3.47;;
68256;SDS011;55069;51.568;4.656;2022-09-03T00:07:14;8.80;;;2.78;;
68256;SDS011;55069;51.568;4.656;2022-09-03T00:09:52;3.88;;;2.33;;
68256;SDS011;55069;51.568;4.656;2022-09-03T00:12:24;8.40;;;3.53;;
68256;SDS011;55069;51.568;4.656;2022-09-03T00:14:54;9.80;;;3.37;;
68256;SDS011;55069;51.568;4.656;2022-09-03T00:18:27;13.52;;;3.40;;
68256;SDS011;55069;51.568;4.656;2022-09-03T00:20:32;6.80;;;3.20;;
68256;SDS011;55069;51.568;4.656;2022-09-03T00:23:03;8.27;;;3.17;;
68256;SDS011;55069;51.568;4.656;2022-09-03T00:28:00;4.97;;;3.00;;
68256;SDS011;55069;51.568;4.656;2022-09-03T00:30:30;9.65;;;3.13;;
68256;SDS011;55069;51.568;4.656;2022-09-03T00:33:11;7.40;;;3.40;;
68256;SDS011;55069;51.568;4.656;2022-09-03T00:35:47;11.10;;;3.78;;
68256;SDS011;55069;51.568;4.656;2022-09-03T00:38:18;8.40;;;3.22;;
68256;SDS011;55069;51.568;4.656;2022-09-03T00:40:49;9.47;;;3.13;;
68256;SDS011;55069;51.568;4.656;2022-09-03T00:43:43;10.05;;;3.45;;
68256;SDS011;55069;51.568;4.656;2022-09-03T00:46:23;5.82;;;2.88;;
68256;SDS011;55069;51.568;4.656;2022-09-03T00:49:12;8.60;;;3.28;;
68256;SDS011;55069;51.568;4.656;2022-09-03T00:55:01;8.33;;;3.57;;
68256;SDS011;55069;51.568;4.656;2022-09-03T01:00:15;8.55;;;3.70;;
68256;SDS011;55069;51.568;4.656;2022-09-03T01:08:29;9.80;;;4.47;;
68256;SDS011;55069;51.568;4.656;2022-09-03T01:14:00;9.05;;;4.00;;
68256;SDS011;55069;51.568;4.656;2022-09-03T01:30:40;11.18;;;4.15;;
68256;SDS011;55069;51.568;4.656;2022-09-03T01:33:16;9.25;;;3.70;;
68256;SDS011;55069;51.568;4.656;2022-09-03T01:38:31;10.77;;;4.22;;
68256;SDS011;55069;51.568;4.656;2022-09-03T01:46:38;10.05;;;4.45;;
68256;SDS011;55069;51.568;4.656;2022-09-03T01:52:10;11.38;;;4.57;;
68256;SDS011;55069;51.568;4.656;2022-09-03T02:02:38;8.57;;;4.80;;
68256;SDS011;55069;51.568;4.656;2022-09-03T02:05:12;13.90;;;5.22;;
68256;SDS011;55069;51.568;4.656;2022-09-03T02:10:15;11.50;;;4.72;;
68256;SDS011;55069;51.568;4.656;2022-09-03T02:12:47;9.23;;;4.57;;
68256;SDS011;55069;51.568;4.656;2022-09-03T02:15:19;7.53;;;4.40;;
68256;SDS011;55069;51.568;4.656;2022-09-03T02:17:47;10.57;;;4.75;;
68256;SDS011;55069;51.568;4.656;2022-09-03T02:20:16;8.60;;;4.80;;
68256;SDS011;55069;51.568;4.656;2022-09-03T02:22:45;11.80;;;5.00;;
68256;SDS011;55069;51.568;4.656;2022-09-03T02:25:12;10.32;;;5.88;;
68256;SDS011;55069;51.568;4.656;2022-09-03T02:27:38;11.10;;;5.03;;
68256;SDS011;55069;51.568;4.656;2022-09-03T02:30:04;10.55;;;5.72;;
68256;SDS011;55069;51.568;4.656;2022-09-03T02:32:31;14.50;;;5.25;;
68256;SDS011;55069;51.568;4.656;2022-09-03T02:34:57;11.20;;;5.40;;
68256;SDS011;55069;51.568;4.656;2022-09-03T02:37:23;9.17;;;4.97;;
68256;SDS011;55069;51.568;4.656;2022-09-03T02:39:48;17.52;;;5.72;;
68256;SDS011;55069;51.568;4.656;2022-09-03T02:42:16;13.18;;;5.15;;
68256;SDS011;55069;51.568;4.656;2022-09-03T02:45:06;11.02;;;6.00;;
68256;SDS011;55069;51.568;4.656;2022-09-03T02:47:49;12.30;;;5.77;;
68256;SDS011;55069;51.568;4.656;2022-09-03T02:50:17;13.38;;;5.90;;
68256;SDS011;55069;51.568;4.656;2022-09-03T02:52:43;13.00;;;6.72;;
68256;SDS011;55069;51.568;4.656;2022-09-03T02:55:09;14.53;;;6.40;;
68256;SDS011;55069;51.568;4.656;2022-09-03T02:57:34;14.07;;;6.53;;
68256;SDS011;55069;51.568;4.656;2022-09-03T03:00:00;17.30;;;6.10;;
68256;SDS011;55069;51.568;4.656;2022-09-03T03:02:25;12.50;;;5.90;;
68256;SDS011;55069;51.568;4.656;2022-09-03T03:04:51;13.20;;;5.77;;
68256;SDS011;55069;51.568;4.656;2022-09-03T03:07:17;11.65;;;6.15;;
68256;SDS011;55069;51.568;4.656;2022-09-03T03:09:42;12.50;;;5.97;;
68256;SDS011;55069;51.568;4.656;2022-09-03T03:12:08;12.37;;;6.23;;
68256;SDS011;55069;51.568;4.656;2022-09-03T03:14:34;10.55;;;6.45;;
68256;SDS011;55069;51.568;4.656;2022-09-03T03:16:59;14.55;;;6.35;;
68256;SDS011;55069;51.568;4.656;2022-09-03T03:19:25;12.95;;;6.28;;
68256;SDS011;55069;51.568;4.656;2022-09-03T03:21:50;14.97;;;6.10;;
68256;SDS011;55069;51.568;4.656;2022-09-03T03:24:16;11.57;;;5.80;;
68256;SDS011;55069;51.568;4.656;2022-09-03T03:26:41;12.00;;;6.00;;
68256;SDS011;55069;51.568;4.656;2022-09-03T03:29:07;12.77;;;6.20;;
68256;SDS011;55069;51.568;4.656;2022-09-03T03:31:39;10.27;;;5.85;;
68256;SDS011;55069;51.568;4.656;2022-09-03T03:34:05;11.80;;;6.23;;
68256;SDS011;55069;51.568;4.656;2022-09-03T03:36:31;12.63;;;6.07;;
68256;SDS011;55069;51.568;4.656;2022-09-03T03:38:58;11.23;;;6.32;;
68256;SDS011;55069;51.568;4.656;2022-09-03T03:41:28;12.50;;;6.50;;
68256;SDS011;55069;51.568;4.656;2022-09-03T03:43:59;14.05;;;6.15;;
68256;SDS011;55069;51.568;4.656;2022-09-03T03:46:30;14.00;;;5.88;;
68256;SDS011;55069;51.568;4.656;2022-09-03T03:49:00;9.23;;;5.63;;
68256;SDS011;55069;51.568;4.656;2022-09-03T03:51:26;12.75;;;5.57;;
68256;SDS011;55069;51.568;4.656;2022-09-03T03:53:53;15.90;;;6.15;;
68256;SDS011;55069;51.568;4.656;2022-09-03T03:56:20;8.95;;;5.15;;
68256;SDS011;55069;51.568;4.656;2022-09-03T03:58:46;12.53;;;5.43;;
68256;SDS011;55069;51.568;4.656;2022-09-03T04:01:16;10.60;;;5.13;;
68256;SDS011;55069;51.568;4.656;2022-09-03T04:03:43;12.00;;;5.30;;
68256;SDS011;55069;51.568;4.656;2022-09-03T04:06:10;9.57;;;5.70;;
68256;SDS011;55069;51.568;4.656;2022-09-03T04:08:38;12.65;;;5.03;;
68256;SDS011;55069;51.568;4.656;2022-09-03T04:11:06;8.23;;;5.13;;
68256;SDS011;55069;51.568;4.656;2022-09-03T04:13:34;11.13;;;5.57;;
68256;SDS011;55069;51.568;4.656;2022-09-03T04:16:02;7.95;;;4.60;;
68256;SDS011;55069;51.568;4.656;2022-09-03T04:18:30;9.87;;;5.50;;
68256;SDS011;55069;51.568;4.656;2022-09-03T04:21:00;8.27;;;4.32;;
68256;SDS011;55069;51.568;4.656;2022-09-03T04:23:29;9.80;;;4.90;;
68256;SDS011;55069;51.568;4.656;2022-09-03T04:25:58;13.00;;;4.95;;
68256;SDS011;55069;51.568;4.656;2022-09-03T04:28:24;8.90;;;4.90;;
68256;SDS011;55069;51.568;4.656;2022-09-03T04:30:50;14.40;;;4.82;;
68256;SDS011;55069;51.568;4.656;2022-09-03T04:33:15;8.63;;;4.25;;
68256;SDS011;55069;51.568;4.656;2022-09-03T04:35:41;6.33;;;4.07;;
68256;SDS011;55069;51.568;4.656;2022-09-03T04:38:07;9.05;;;5.05;;
68256;SDS011;55069;51.568;4.656;2022-09-03T04:40:32;8.80;;;4.63;;
68256;SDS011;55069;51.568;4.656;2022-09-03T04:42:58;9.67;;;4.77;;
68256;SDS011;55069;51.568;4.656;2022-09-03T04:45:25;11.57;;;4.50;;
68256;SDS011;55069;51.568;4.656;2022-09-03T04:48:02;11.27;;;4.18;;
68256;SDS011;55069;51.568;4.656;2022-09-03T04:50:30;14.52;;;3.92;;
68256;SDS011;55069;51.568;4.656;2022-09-03T04:53:00;8.57;;;4.53;;
68256;SDS011;55069;51.568;4.656;2022-09-03T04:55:31;7.45;;;3.75;;
68256;SDS011;55069;51.568;4.656;2022-09-03T04:57:59;7.32;;;4.10;;
68256;SDS011;55069;51.568;4.656;2022-09-03T05:00:24;13.57;;;3.85;;
68256;SDS011;55069;51.568;4.656;2022-09-03T05:02:50;11.23;;;4.43;;
68256;SDS011;55069;51.568;4.656;2022-09-03T05:05:16;6.03;;;3.93;;
68256;SDS011;55069;51.568;4.656;2022-09-03T05:07:42;8.90;;;3.63;;
68256;SDS011;55069;51.568;4.656;2022-09-03T05:10:10;11.43;;;3.97;;
68256;SDS011;55069;51.568;4.656;2022-09-03T05:12:37;11.65;;;3.63;;
68256;SDS011;55069;51.568;4.656;2022-09-03T05:15:03;7.27;;;3.33;;
68256;SDS011;55069;51.568;4.656;2022-09-03T05:17:30;11.63;;;3.50;;
68256;SDS011;55069;51.568;4.656;2022-09-03T05:19:55;13.55;;;3.95;;
68256;SDS011;55069;51.568;4.656;2022-09-03T05:22:22;14.20;;;3.55;;
68256;SDS011;55069;51.568;4.656;2022-09-03T05:24:47;9.32;;;3.60;;
68256;SDS011;55069;51.568;4.656;2022-09-03T05:27:14;8.97;;;3.13;;
68256;SDS011;55069;51.568;4.656;2022-09-03T05:29:43;7.28;;;3.53;;
68256;SDS011;55069;51.568;4.656;2022-09-03T05:32:09;6.43;;;3.50;;
68256;SDS011;55069;51.568;4.656;2022-09-03T05:34:36;6.20;;;3.50;;
68256;SDS011;55069;51.568;4.656;2022-09-03T05:37:02;11.03;;;3.40;;
68256;SDS011;55069;51.568;4.656;2022-09-03T05:39:28;11.70;;;3.28;;
68256;SDS011;55069;51.568;4.656;2022-09-03T05:41:53;6.97;;;3.33;;
68256;SDS011;55069;51.568;4.656;2022-09-03T05:44:19;4.88;;;2.63;;
68256;SDS011;55069;51.568;4.656;2022-09-03T05:46:48;6.95;;;3.28;;
68256;SDS011;55069;51.568;4.656;2022-09-03T05:49:14;7.45;;;3.13;;
68256;SDS011;55069;51.568;4.656;2022-09-03T05:51:39;7.80;;;3.50;;
68256;SDS011;55069;51.568;4.656;2022-09-03T05:54:06;6.55;;;2.92;;
68256;SDS011;55069;51.568;4.656;2022-09-03T05:56:33;8.53;;;3.27;;
68256;SDS011;55069;51.568;4.656;2022-09-03T05:59:01;6.07;;;3.05;;
68256;SDS011;55069;51.568;4.656;2022-09-03T06:01:37;4.65;;;2.88;;
68256;SDS011;55069;51.568;4.656;2022-09-03T06:04:05;4.40;;;2.75;;
68256;SDS011;55069;51.568;4.656;2022-09-03T06:06:34;7.13;;;2.90;;
68256;SDS011;55069;51.568;4.656;2022-09-03T06:09:02;5.93;;;2.80;;
68256;SDS011;55069;51.568;4.656;2022-09-03T06:11:30;13.23;;;2.83;;
68256;SDS011;55069;51.568;4.656;2022-09-03T06:13:57;8.57;;;3.20;;
68256;SDS011;55069;51.568;4.656;2022-09-03T06:16:27;5.80;;;2.70;;
68256;SDS011;55069;51.568;4.656;2022-09-03T06:18:53;5.22;;;2.78;;
68256;SDS011;55069;51.568;4.656;2022-09-03T06:21:20;8.47;;;3.00;;
68256;SDS011;55069;51.568;4.656;2022-09-03T06:23:51;10.40;;;2.80;;
68256;SDS011;55069;51.568;4.656;2022-09-03T06:26:18;8.70;;;2.92;;
68256;SDS011;55069;51.568;4.656;2022-09-03T06:28:44;5.15;;;2.50;;
68256;SDS011;55069;51.568;4.656;2022-09-03T06:31:14;8.93;;;3.55;;
68256;SDS011;55069;51.568;4.656;2022-09-03T06:33:41;10.03;;;2.83;;
68256;SDS011;55069;51.568;4.656;2022-09-03T06:36:09;5.10;;;2.67;;
68256;SDS011;55069;51.568;4.656;2022-09-03T06:38:37;5.32;;;2.78;;
68256;SDS011;55069;51.568;4.656;2022-09-03T06:41:04;5.95;;;2.30;;
68256;SDS011;55069;51.568;4.656;2022-09-03T06:43:32;10.23;;;2.80;;
68256;SDS011;55069;51.568;4.656;2022-09-03T06:46:00;9.02;;;2.53;;
68256;SDS011;55069;51.568;4.656;2022-09-03T06:48:29;5.70;;;2.55;;
68256;SDS011;55069;51.568;4.656;2022-09-03T06:51:00;6.35;;;2.42;;
68256;SDS011;55069;51.568;4.656;2022-09-03T06:53:37;4.15;;;2.40;;
68256;SDS011;55069;51.568;4.656;2022-09-03T06:56:09;14.27;;;2.67;;
68256;SDS011;55069;51.568;4.656;2022-09-03T06:58:37;8.40;;;2.65;;
68256;SDS011;55069;51.568;4.656;2022-09-03T07:01:05;4.57;;;2.40;;
68256;SDS011;55069;51.568;4.656;2022-09-03T07:03:33;7.75;;;2.25;;
68256;SDS011;55069;51.568;4.656;2022-09-03T07:06:03;5.18;;;2.58;;
68256;SDS011;55069;51.568;4.656;2022-09-03T07:08:30;4.97;;;2.40;;
68256;SDS011;55069;51.568;4.656;2022-09-03T07:10:58;4.65;;;2.17;;
68256;SDS011;55069;51.568;4.656;2022-09-03T07:13:36;5.40;;;2.55;;
68256;SDS011;55069;51.568;4.656;2022-09-03T07:16:05;8.88;;;2.65;;
68256;SDS011;55069;51.568;4.656;2022-09-03T07:18:32;8.20;;;2.45;;
68256;SDS011;55069;51.568;4.656;2022-09-03T07:20:59;7.63;;;2.07;;
68256;SDS011;55069;51.568;4.656;2022-09-03T07:23:26;13.93;;;2.20;;
68256;SDS011;55069;51.568;4.656;2022-09-03T07:25:56;6.85;;;2.13;;
68256;SDS011;55069;51.568;4.656;2022-09-03T07:28:23;5.22;;;1.92;;
68256;SDS011;55069;51.568;4.656;2022-09-03T07:30:52;7.13;;;1.90;;
68256;SDS011;55069;51.568;4.656;2022-09-03T07:33:19;7.45;;;1.92;;
68256;SDS011;55069;51.568;4.656;2022-09-03T07:35:45;6.70;;;2.10;;
68256;SDS011;55069;51.568;4.656;2022-09-03T07:38:15;11.48;;;2.10;;
68256;SDS011;55069;51.568;4.656;2022-09-03T07:40:42;3.97;;;1.90;;
68256;SDS011;55069;51.568;4.656;2022-09-03T07:43:08;4.90;;;1.80;;
68256;SDS011;55069;51.568;4.656;2022-09-03T07:45:34;7.65;;;2.00;;
68256;SDS011;55069;51.568;4.656;2022-09-03T07:47:59;4.03;;;2.15;;
68256;SDS011;55069;51.568;4.656;2022-09-03T07:50:25;13.70;;;2.07;;
68256;SDS011;55069;51.568;4.656;2022-09-03T07:52:57;9.43;;;1.95;;
68256;SDS011;55069;51.568;4.656;2022-09-03T07:55:23;8.25;;;2.13;;
68256;SDS011;55069;51.568;4.656;2022-09-03T07:57:54;3.95;;;1.92;;
68256;SDS011;55069;51.568;4.656;2022-09-03T08:00:20;7.72;;;1.88;;
68256;SDS011;55069;51.568;4.656;2022-09-03T08:02:46;5.50;;;2.30;;
68256;SDS011;55069;51.568;4.656;2022-09-03T08:05:12;9.15;;;1.90;;
68256;SDS011;55069;51.568;4.656;2022-09-03T08:07:37;6.33;;;2.17;;
68256;SDS011;55069;51.568;4.656;2022-09-03T08:10:03;6.22;;;2.28;;
68256;SDS011;55069;51.568;4.656;2022-09-03T08:12:30;7.05;;;1.88;;
68256;SDS011;55069;51.568;4.656;2022-09-03T08:14:56;12.15;;;2.20;;
68256;SDS011;55069;51.568;4.656;2022-09-03T08:17:22;7.30;;;1.85;;
68256;SDS011;55069;51.568;4.656;2022-09-03T08:19:48;8.63;;;1.80;;
68256;SDS011;55069;51.568;4.656;2022-09-03T08:22:15;6.65;;;1.80;;
68256;SDS011;55069;51.568;4.656;2022-09-03T08:24:40;8.53;;;2.40;;
68256;SDS011;55069;51.568;4.656;2022-09-03T08:27:07;11.27;;;2.10;;
68256;SDS011;55069;51.568;4.656;2022-09-03T08:29:33;15.38;;;2.58;;
68256;SDS011;55069;51.568;4.656;2022-09-03T08:31:58;9.90;;;2.23;;
68256;SDS011;55069;51.568;4.656;2022-09-03T08:34:24;3.95;;;2.38;;
68256;SDS011;55069;51.568;4.656;2022-09-03T08:36:50;12.73;;;2.83;;
68256;SDS011;55069;51.568;4.656;2022-09-03T08:39:18;6.35;;;2.55;;
68256;SDS011;55069;51.568;4.656;2022-09-03T08:49:42;9.57;;;2.38;;
68256;SDS011;55069;51.568;4.656;2022-09-03T08:55:17;5.20;;;2.80;;
68256;SDS011;55069;51.568;4.656;2022-09-03T08:58:12;4.63;;;2.07;;
68256;SDS011;55069;51.568;4.656;2022-09-03T09:15:06;3.15;;;1.95;;
68256;SDS011;55069;51.568;4.656;2022-09-03T09:22:56;11.55;;;2.10;;
68256;SDS011;55069;51.568;4.656;2022-09-03T09:25:27;3.30;;;1.90;;
68256;SDS011;55069;51.568;4.656;2022-09-03T09:27:57;4.80;;;2.05;;
68256;SDS011;55069;51.568;4.656;2022-09-03T09:30:26;5.97;;;2.08;;
68256;SDS011;55069;51.568;4.656;2022-09-03T09:32:54;5.03;;;1.67;;
68256;SDS011;55069;51.568;4.656;2022-09-03T09:35:20;8.55;;;2.38;;
68256;SDS011;55069;51.568;4.656;2022-09-03T09:37:47;5.10;;;2.47;;
68256;SDS011;55069;51.568;4.656;2022-09-03T09:42:49;5.60;;;1.92;;
68256;SDS011;55069;51.568;4.656;2022-09-03T09:45:16;7.35;;;2.05;;
68256;SDS011;55069;51.568;4.656;2022-09-03T09:47:41;3.05;;;1.88;;
68256;SDS011;55069;51.568;4.656;2022-09-03T09:50:19;8.43;;;2.00;;
68256;SDS011;55069;51.568;4.656;2022-09-03T09:52:46;4.95;;;1.92;;
68256;SDS011;55069;51.568;4.656;2022-09-03T09:55:20;6.50;;;2.13;;
68256;SDS011;55069;51.568;4.656;2022-09-03T09:57:47;3.83;;;2.00;;
68256;SDS011;55069;51.568;4.656;2022-09-03T10:00:17;7.47;;;2.20;;
68256;SDS011;55069;51.568;4.656;2022-09-03T10:02:50;8.60;;;2.00;;
68256;SDS011;55069;51.568;4.656;2022-09-03T10:05:24;3.08;;;1.92;;
68256;SDS011;55069;51.568;4.656;2022-09-03T10:07:59;2.80;;;1.90;;
68256;SDS011;55069;51.568;4.656;2022-09-03T10:10:28;3.88;;;2.30;;
68256;SDS011;55069;51.568;4.656;2022-09-03T10:13:08;4.93;;;2.10;;
68256;SDS011;55069;51.568;4.656;2022-09-03T10:15:42;5.88;;;2.03;;
68256;SDS011;55069;51.568;4.656;2022-09-03T10:18:39;5.53;;;2.20;;
68256;SDS011;55069;51.568;4.656;2022-09-03T10:21:11;4.28;;;2.15;;
68256;SDS011;55069;51.568;4.656;2022-09-03T10:26:39;4.13;;;2.13;;
68256;SDS011;55069;51.568;4.656;2022-09-03T10:29:07;4.20;;;2.00;;
68256;SDS011;55069;51.568;4.656;2022-09-03T10:34:05;4.55;;;2.05;;
68256;SDS011;55069;51.568;4.656;2022-09-03T10:45:40;3.60;;;2.17;;
68256;SDS011;55069;51.568;4.656;2022-09-03T10:51:02;6.63;;;2.20;;
68256;SDS011;55069;51.568;4.656;2022-09-03T10:56:06;7.00;;;2.13;;
68256;SDS011;55069;51.568;4.656;2022-09-03T11:01:35;6.28;;;2.35;;
68256;SDS011;55069;51.568;4.656;2022-09-03T11:04:19;6.10;;;2.17;;
68256;SDS011;55069;51.568;4.656;2022-09-03T11:07:04;5.30;;;2.10;;
68256;SDS011;55069;51.568;4.656;2022-09-03T11:12:31;5.55;;;2.10;;
68256;SDS011;55069;51.568;4.656;2022-09-03T11:15:13;5.50;;;2.03;;
68256;SDS011;55069;51.568;4.656;2022-09-03T11:17:49;7.72;;;2.28;;
68256;SDS011;55069;51.568;4.656;2022-09-03T11:20:24;7.73;;;2.43;;
68256;SDS011;55069;51.568;4.656;2022-09-03T11:22:52;7.25;;;1.80;;
68256;SDS011;55069;51.568;4.656;2022-09-03T11:25:21;5.22;;;1.90;;
68256;SDS011;55069;51.568;4.656;2022-09-03T11:30:45;3.33;;;2.30;;
68256;SDS011;55069;51.568;4.656;2022-09-03T11:33:26;5.67;;;2.33;;
68256;SDS011;55069;51.568;4.656;2022-09-03T11:35:56;4.60;;;2.00;;
68256;SDS011;55069;51.568;4.656;2022-09-03T11:38:27;19.38;;;2.28;;
68256;SDS011;55069;51.568;4.656;2022-09-03T11:41:30;6.63;;;1.92;;
68256;SDS011;55069;51.568;4.656;2022-09-03T11:43:51;5.40;;;1.65;;
68256;SDS011;55069;51.568;4.656;2022-09-03T11:48:48;2.53;;;1.73;;
68256;SDS011;55069;51.568;4.656;2022-09-03T11:51:17;5.28;;;2.00;;
68256;SDS011;55069;51.568;4.656;2022-09-03T11:54:04;4.95;;;2.00;;
68256;SDS011;55069;51.568;4.656;2022-09-03T11:56:45;2.65;;;2.03;;
68256;SDS011;55069;51.568;4.656;2022-09-03T12:01:47;4.10;;;2.17;;
68256;SDS011;55069;51.568;4.656;2022-09-03T12:04:30;3.03;;;2.10;;
68256;SDS011;55069;51.568;4.656;2022-09-03T12:07:12;6.57;;;2.03;;
68256;SDS011;55069;51.568;4.656;2022-09-03T12:10:01;5.15;;;2.05;;
68256;SDS011;55069;51.568;4.656;2022-09-03T12:12:54;3.80;;;2.10;;
68256;SDS011;55069;51.568;4.656;2022-09-03T12:18:03;3.95;;;1.90;;
68256;SDS011;55069;51.568;4.656;2022-09-03T12:20:45;9.30;;;2.10;;
68256;SDS011;55069;51.568;4.656;2022-09-03T12:23:13;2.20;;;1.92;;
68256;SDS011;55069;51.568;4.656;2022-09-03T12:25:50;14.67;;;2.00;;
68256;SDS011;55069;51.568;4.656;2022-09-03T12:28:19;2.95;;;1.90;;
68256;SDS011;55069;51.568;4.656;2022-09-03T12:30:50;5.85;;;2.10;;
68256;SDS011;55069;51.568;4.656;2022-09-03T12:33:17;5.55;;;2.65;;
68256;SDS011;55069;51.568;4.656;2022-09-03T12:35:54;5.28;;;1.80;;
68256;SDS011;55069;51.568;4.656;2022-09-03T12:38:24;6.47;;;2.30;;
68256;SDS011;55069;51.568;4.656;2022-09-03T12:40:50;10.48;;;2.40;;
68256;SDS011;55069;51.568;4.656;2022-09-03T12:43:16;3.40;;;2.22;;
68256;SDS011;55069;51.568;4.656;2022-09-03T12:45:46;3.72;;;2.10;;
68256;SDS011;55069;51.568;4.656;2022-09-03T12:48:15;4.43;;;2.20;;
68256;SDS011;55069;51.568;4.656;2022-09-03T12:50:43;4.90;;;2.45;;
68256;SDS011;55069;51.568;4.656;2022-09-03T12:53:11;21.23;;;2.58;;
68256;SDS011;55069;51.568;4.656;2022-09-03T12:55:45;4.00;;;1.92;;
68256;SDS011;55069;51.568;4.656;2022-09-03T12:58:41;7.13;;;2.28;;
68256;SDS011;55069;51.568;4.656;2022-09-03T13:01:16;4.17;;;2.40;;
68256;SDS011;55069;51.568;4.656;2022-09-03T13:06:27;6.93;;;2.15;;
68256;SDS011;55069;51.568;4.656;2022-09-03T13:09:01;3.75;;;2.20;;
68256;SDS011;55069;51.568;4.656;2022-09-03T13:11:33;7.88;;;2.10;;
68256;SDS011;55069;51.568;4.656;2022-09-03T13:14:12;6.30;;;2.03;;
68256;SDS011;55069;51.568;4.656;2022-09-03T13:22:08;2.90;;;2.00;;
68256;SDS011;55069;51.568;4.656;2022-09-03T13:30:59;8.18;;;2.42;;
68256;SDS011;55069;51.568;4.656;2022-09-03T13:33:37;6.03;;;2.17;;
68256;SDS011;55069;51.568;4.656;2022-09-03T13:41:15;8.27;;;2.00;;
68256;SDS011;55069;51.568;4.656;2022-09-03T13:46:54;4.80;;;2.10;;
68256;SDS011;55069;51.568;4.656;2022-09-03T13:49:52;5.50;;;2.08;;
68256;SDS011;55069;51.568;4.656;2022-09-03T13:58:31;5.30;;;2.20;;
68256;SDS011;55069;51.568;4.656;2022-09-03T14:01:20;4.20;;;2.45;;
68256;SDS011;55069;51.568;4.656;2022-09-03T14:03:52;7.78;;;2.38;;
68256;SDS011;55069;51.568;4.656;2022-09-03T14:09:13;3.57;;;2.20;;
68256;SDS011;55069;51.568;4.656;2022-09-03T14:11:48;10.98;;;2.10;;
68256;SDS011;55069;51.568;4.656;2022-09-03T14:17:35;8.90;;;2.45;;
68256;SDS011;55069;51.568;4.656;2022-09-03T14:20:07;5.70;;;2.17;;
68256;SDS011;55069;51.568;4.656;2022-09-03T14:25:56;4.30;;;2.28;;
68256;SDS011;55069;51.568;4.656;2022-09-03T14:28:30;3.17;;;2.08;;
68256;SDS011;55069;51.568;4.656;2022-09-03T14:31:06;5.57;;;2.00;;
68256;SDS011;55069;51.568;4.656;2022-09-03T14:36:42;5.80;;;1.90;;
68256;SDS011;55069;51.568;4.656;2022-09-03T14:39:32;6.70;;;2.20;;
68256;SDS011;55069;51.568;4.656;2022-09-03T14:50:02;5.30;;;2.10;;
68256;SDS011;55069;51.568;4.656;2022-09-03T15:01:34;3.80;;;2.38;;
68256;SDS011;55069;51.568;4.656;2022-09-03T15:14:21;5.30;;;2.10;;
68256;SDS011;55069;51.568;4.656;2022-09-03T15:16:59;10.13;;;2.13;;
68256;SDS011;55069;51.568;4.656;2022-09-03T15:22:45;3.78;;;2.22;;
68256;SDS011;55069;51.568;4.656;2022-09-03T15:25:34;4.22;;;1.95;;
68256;SDS011;55069;51.568;4.656;2022-09-03T15:28:29;4.05;;;1.90;;
68256;SDS011;55069;51.568;4.656;2022-09-03T15:33:39;4.47;;;2.47;;
68256;SDS011;55069;51.568;4.656;2022-09-03T15:41:43;4.68;;;2.03;;
68256;SDS011;55069;51.568;4.656;2022-09-03T15:44:13;3.20;;;2.00;;
68256;SDS011;55069;51.568;4.656;2022-09-03T15:51:58;3.85;;;2.40;;
68256;SDS011;55069;51.568;4.656;2022-09-03T15:55:00;3.75;;;2.20;;
68256;SDS011;55069;51.568;4.656;2022-09-03T16:00:12;8.95;;;2.20;;
68256;SDS011;55069;51.568;4.656;2022-09-03T16:08:28;3.67;;;2.40;;
68256;SDS011;55069;51.568;4.656;2022-09-03T16:11:11;3.03;;;1.92;;
68256;SDS011;55069;51.568;4.656;2022-09-03T16:19:17;6.28;;;2.25;;
68256;SDS011;55069;51.568;4.656;2022-09-03T16:22:05;5.50;;;2.70;;
68256;SDS011;55069;51.568;4.656;2022-09-03T16:27:19;5.38;;;2.45;;
68256;SDS011;55069;51.568;4.656;2022-09-03T16:29:59;7.93;;;2.40;;
68256;SDS011;55069;51.568;4.656;2022-09-03T16:32:50;4.32;;;2.45;;
68256;SDS011;55069;51.568;4.656;2022-09-03T16:43:32;2.40;;;2.20;;
68256;SDS011;55069;51.568;4.656;2022-09-03T16:52:44;3.40;;;2.55;;
68256;SDS011;55069;51.568;4.656;2022-09-03T16:55:24;2.78;;;2.22;;
68256;SDS011;55069;51.568;4.656;2022-09-03T16:58:01;7.40;;;2.50;;
68256;SDS011;55069;51.568;4.656;2022-09-03T17:00:42;5.43;;;2.40;;
68256;SDS011;55069;51.568;4.656;2022-09-03T17:15:03;5.57;;;2.40;;
68256;SDS011;55069;51.568;4.656;2022-09-03T17:20:35;4.70;;;2.83;;
68256;SDS011;55069;51.568;4.656;2022-09-03T17:23:30;7.53;;;2.40;;
68256;SDS011;55069;51.568;4.656;2022-09-03T17:36:46;5.57;;;2.30;;
68256;SDS011;55069;51.568;4.656;2022-09-03T17:53:51;4.43;;;3.00;;
68256;SDS011;55069;51.568;4.656;2022-09-03T17:56:24;4.43;;;2.40;;
68256;SDS011;55069;51.568;4.656;2022-09-03T17:58:54;4.32;;;2.17;;
68256;SDS011;55069;51.568;4.656;2022-09-03T18:01:32;5.78;;;2.70;;
68256;SDS011;55069;51.568;4.656;2022-09-03T18:04:10;4.88;;;2.28;;
68256;SDS011;55069;51.568;4.656;2022-09-03T18:09:10;3.38;;;2.20;;
68256;SDS011;55069;51.568;4.656;2022-09-03T18:15:02;4.70;;;1.90;;
68256;SDS011;55069;51.568;4.656;2022-09-03T18:17:38;6.18;;;2.75;;
68256;SDS011;55069;51.568;4.656;2022-09-03T18:20:28;4.57;;;2.67;;
68256;SDS011;55069;51.568;4.656;2022-09-03T18:23:28;4.60;;;2.38;;
68256;SDS011;55069;51.568;4.656;2022-09-03T18:26:24;4.13;;;2.63;;
68256;SDS011;55069;51.568;4.656;2022-09-03T18:29:31;5.07;;;2.50;;
68256;SDS011;55069;51.568;4.656;2022-09-03T18:32:20;6.00;;;2.75;;
68256;SDS011;55069;51.568;4.656;2022-09-03T18:35:04;7.35;;;2.85;;
68256;SDS011;55069;51.568;4.656;2022-09-03T18:37:51;3.70;;;2.70;;
68256;SDS011;55069;51.568;4.656;2022-09-03T18:40:37;5.88;;;2.72;;
68256;SDS011;55069;51.568;4.656;2022-09-03T18:53:01;3.63;;;2.58;;
68256;SDS011;55069;51.568;4.656;2022-09-03T18:58:56;3.47;;;3.00;;
68256;SDS011;55069;51.568;4.656;2022-09-03T19:02:06;5.32;;;3.08;;
68256;SDS011;55069;51.568;4.656;2022-09-03T19:05:15;6.07;;;2.90;;
68256;SDS011;55069;51.568;4.656;2022-09-03T19:11:05;4.45;;;2.72;;
68256;SDS011;55069;51.568;4.656;2022-09-03T19:14:04;6.60;;;3.10;;
68256;SDS011;55069;51.568;4.656;2022-09-03T19:20:12;4.93;;;3.22;;
68256;SDS011;55069;51.568;4.656;2022-09-03T19:23:01;6.15;;;2.95;;
68256;SDS011;55069;51.568;4.656;2022-09-03T19:25:46;4.15;;;2.75;;
68256;SDS011;55069;51.568;4.656;2022-09-03T19:28:30;5.83;;;3.10;;
68256;SDS011;55069;51.568;4.656;2022-09-03T19:31:40;6.43;;;2.65;;
68256;SDS011;55069;51.568;4.656;2022-09-03T19:37:52;5.32;;;2.85;;
68256;SDS011;55069;51.568;4.656;2022-09-03T19:43:58;4.23;;;3.33;;
68256;SDS011;55069;51.568;4.656;2022-09-03T19:47:09;5.05;;;3.50;;
68256;SDS011;55069;51.568;4.656;2022-09-03T19:53:19;4.82;;;3.28;;
68256;SDS011;55069;51.568;4.656;2022-09-03T19:56:16;4.72;;;2.85;;
68256;SDS011;55069;51.568;4.656;2022-09-03T19:59:08;6.43;;;3.40;;
68256;SDS011;55069;51.568;4.656;2022-09-03T20:01:56;4.38;;;3.22;;
68256;SDS011;55069;51.568;4.656;2022-09-03T20:04:50;4.47;;;3.50;;
68256;SDS011;55069;51.568;4.656;2022-09-03T20:07:40;5.13;;;3.15;;
68256;SDS011;55069;51.568;4.656;2022-09-03T20:10:24;5.30;;;3.47;;
68256;SDS011;55069;51.568;4.656;2022-09-03T20:15:20;5.75;;;3.30;;
68256;SDS011;55069;51.568;4.656;2022-09-03T20:23:10;8.80;;;4.57;;
68256;SDS011;55069;51.568;4.656;2022-09-03T20:25:46;9.73;;;5.07;;
68256;SDS011;55069;51.568;4.656;2022-09-03T20:36:54;4.68;;;3.97;;
68256;SDS011;55069;51.568;4.656;2022-09-03T20:39:35;5.87;;;3.83;;
68256;SDS011;55069;51.568;4.656;2022-09-03T20:45:17;7.18;;;4.60;;
68256;SDS011;55069;51.568;4.656;2022-09-03T20:50:50;6.13;;;4.15;;
68256;SDS011;55069;51.568;4.656;2022-09-03T21:04:36;5.70;;;4.38;;
68256;SDS011;55069;51.568;4.656;2022-09-03T21:15:37;7.20;;;4.18;;
68256;SDS011;55069;51.568;4.656;2022-09-03T21:18:19;7.93;;;4.00;;